Time;durP1;ratioP1;P1;durP2;ratioP2;P2;SDS_P1;SDS_P2;PMS_P1;PMS_P2;Temp;Humidity;BMP_temperature;BMP_pressure;BME280_temperature;BME280_humidity;BME280_pressure;Samples;Min_cycle;Max_cycle;Signal;HPM_P1;HPM_P2
2022/07/16 00:02:03;;;;;;;2.47;1.40;;;20.30;92.80;;;;;;4122732;28;20031;-70
2022/07/16 00:04:03;;;;;;;3.25;1.58;;;20.30;93.00;;;;;;4125808;28;20435;-70
2022/07/16 00:06:04;;;;;;;3.15;1.77;;;20.30;92.70;;;;;;4123124;28;20073;-70
2022/07/16 00:08:05;;;;;;;3.13;1.73;;;20.30;92.80;;;;;;4122888;28;20045;-70
2022/07/16 00:10:06;;;;;;;4.75;1.90;;;20.20;93.80;;;;;;4126838;28;20092;-73
2022/07/16 00:12:07;;;;;;;4.53;2.10;;;20.20;93.80;;;;;;4122632;28;20034;-70
2022/07/16 00:14:07;;;;;;;3.97;1.85;;;20.20;93.20;;;;;;4124258;28;20084;-70
2022/07/16 00:16:09;;;;;;;2.15;1.30;;;20.20;93.30;;;;;;4122192;28;20466;-70
2022/07/16 00:20:28;;;;;;;2.08;1.48;;;20.20;93.30;;;;;;4128494;28;20117;-70
2022/07/16 00:22:29;;;;;;;2.42;1.35;;;20.20;92.70;;;;;;4123249;28;20088;-70
2022/07/16 00:24:29;;;;;;;2.35;1.45;;;20.20;92.70;;;;;;4125672;28;20117;-70
2022/07/16 00:26:30;;;;;;;3.85;2.03;;;20.20;92.50;;;;;;4124309;28;20482;-70
2022/07/16 00:28:31;;;;;;;3.13;1.48;;;20.20;93.30;;;;;;4123919;28;20505;-70
2022/07/16 00:30:31;;;;;;;2.45;1.50;;;20.20;93.20;;;;;;4122593;28;20064;-70
2022/07/16 00:32:32;;;;;;;3.47;1.77;;;20.20;93.50;;;;;;4122900;28;20049;-70
2022/07/16 00:34:33;;;;;;;2.92;2.05;;;20.20;93.80;;;;;;4123324;28;20038;-70
2022/07/16 00:36:38;;;;;;;3.70;1.88;;;20.20;93.80;;;;;;4124581;28;20105;-70
2022/07/16 00:38:39;;;;;;;4.20;2.10;;;20.10;93.90;;;;;;4122982;28;20055;-70
2022/07/16 00:40:39;;;;;;;5.05;2.05;;;20.10;94.00;;;;;;4124249;28;20042;-70
2022/07/16 00:42:40;;;;;;;3.33;1.90;;;20.10;93.80;;;;;;4122142;28;20030;-70
2022/07/16 00:44:40;;;;;;;4.40;1.90;;;20.10;93.00;;;;;;4123619;28;20026;-70
2022/07/16 00:46:42;;;;;;;3.33;2.00;;;20.00;92.90;;;;;;4121460;28;20133;-70
2022/07/16 00:48:43;;;;;;;2.80;1.70;;;19.90;93.00;;;;;;4127100;28;20032;-70
2022/07/16 00:50:44;;;;;;;4.78;1.75;;;19.80;92.80;;;;;;4126422;28;20031;-71
2022/07/16 00:52:45;;;;;;;3.28;1.90;;;19.80;93.30;;;;;;4119684;28;20047;-68
2022/07/16 00:54:45;;;;;;;2.85;1.58;;;19.80;93.70;;;;;;4122653;28;20066;-69
2022/07/16 00:56:46;;;;;;;1.98;1.55;;;19.70;93.80;;;;;;4121600;28;20054;-70
2022/07/16 00:58:48;;;;;;;4.68;2.00;;;19.70;93.70;;;;;;4126564;28;20689;-70
2022/07/16 01:00:49;;;;;;;3.33;1.73;;;19.70;94.60;;;;;;4126538;28;20031;-70
2022/07/16 01:02:50;;;;;;;2.85;1.77;;;19.70;94.00;;;;;;4122393;28;20041;-70
2022/07/16 01:04:50;;;;;;;3.05;1.58;;;19.80;94.40;;;;;;4122728;28;20034;-70
2022/07/16 01:06:51;;;;;;;2.10;1.80;;;19.80;93.70;;;;;;4126304;28;20037;-70
2022/07/16 01:08:52;;;;;;;4.32;1.80;;;19.80;93.80;;;;;;4123775;28;20038;-70
2022/07/16 01:10:54;;;;;;;3.10;1.92;;;19.80;94.00;;;;;;4124731;28;20031;-70
2022/07/16 01:12:58;;;;;;;2.60;1.73;;;19.80;94.60;;;;;;4124430;28;20089;-70
2022/07/16 01:14:59;;;;;;;4.78;1.88;;;19.80;93.80;;;;;;4120192;28;20427;-70
2022/07/16 01:17:00;;;;;;;3.08;1.60;;;19.80;94.10;;;;;;4134495;28;20084;-70
2022/07/16 01:19:00;;;;;;;2.88;2.00;;;19.80;93.60;;;;;;4127338;28;20049;-70
2022/07/16 01:21:01;;;;;;;3.20;1.90;;;19.80;93.40;;;;;;4128379;28;20022;-70
2022/07/16 01:23:02;;;;;;;4.50;1.95;;;19.80;94.00;;;;;;4140965;28;20030;-70
2022/07/16 01:25:06;;;;;;;3.10;1.73;;;19.80;94.40;;;;;;4129997;28;20033;-71
2022/07/16 01:27:07;;;;;;;2.47;1.60;;;19.80;93.80;;;;;;4130557;28;20092;-70
2022/07/16 01:29:08;;;;;;;2.80;1.70;;;19.80;94.10;;;;;;4128755;28;20121;-70
2022/07/16 01:31:10;;;;;;;2.42;1.50;;;19.80;94.20;;;;;;4129825;28;20405;-70
2022/07/16 01:33:24;;;;;;;4.70;1.88;;;19.80;94.00;;;;;;4124920;28;20027;-70
2022/07/16 01:35:25;;;;;;;2.80;1.60;;;19.70;93.90;;;;;;4124056;28;20034;-70
2022/07/16 01:37:25;;;;;;;2.95;1.70;;;19.70;94.10;;;;;;4122816;28;20114;-70
2022/07/16 01:39:28;;;;;;;5.03;2.20;;;19.70;93.60;;;;;;4126208;28;20022;-69
2022/07/16 01:41:29;;;;;;;4.07;2.25;;;19.70;94.50;;;;;;4125233;28;20057;-70
2022/07/16 01:43:29;;;;;;;2.58;1.77;;;19.60;94.00;;;;;;4120629;28;20073;-70
2022/07/16 01:45:30;;;;;;;5.55;2.25;;;19.60;94.40;;;;;;4124603;28;20046;-70
2022/07/16 01:47:31;;;;;;;3.25;1.90;;;19.60;94.20;;;;;;4123916;28;20046;-70
2022/07/16 01:49:36;;;;;;;3.10;1.90;;;19.60;94.20;;;;;;4127072;28;20026;-70
2022/07/16 01:51:37;;;;;;;2.67;2.00;;;19.60;94.30;;;;;;4122740;28;20121;-70
2022/07/16 01:53:37;;;;;;;3.85;2.05;;;19.60;94.30;;;;;;4122121;28;20414;-70
2022/07/16 01:55:38;;;;;;;1.60;1.45;;;19.60;94.50;;;;;;4123949;28;20046;-70
2022/07/16 01:57:39;;;;;;;1.70;1.60;;;19.60;94.60;;;;;;4125834;28;20031;-70
2022/07/16 01:59:40;;;;;;;2.75;1.73;;;19.60;95.00;;;;;;4125007;28;20030;-70
2022/07/16 02:01:40;;;;;;;2.20;1.77;;;19.50;94.90;;;;;;4122424;28;20054;-70
2022/07/16 02:03:41;;;;;;;3.10;2.10;;;19.50;94.80;;;;;;4126857;28;20069;-70
2022/07/16 02:05:42;;;;;;;3.40;2.17;;;19.50;95.00;;;;;;4124057;28;20034;-70
2022/07/16 02:07:43;;;;;;;2.38;1.60;;;19.50;94.60;;;;;;4124850;28;20039;-70
2022/07/16 02:09:43;;;;;;;5.90;2.20;;;19.50;94.60;;;;;;4123463;28;20050;-70
2022/07/16 02:11:44;;;;;;;4.22;2.10;;;19.50;94.80;;;;;;4122695;28;20509;-70
2022/07/16 02:13:45;;;;;;;2.13;1.60;;;19.50;94.90;;;;;;4125108;28;20038;-70
2022/07/16 02:15:45;;;;;;;2.90;1.90;;;19.50;95.10;;;;;;4120890;28;20046;-70
2022/07/16 02:17:46;;;;;;;2.88;1.75;;;19.50;95.10;;;;;;4122496;28;20477;-69
2022/07/16 02:19:46;;;;;;;5.07;1.83;;;19.50;95.10;;;;;;4126399;28;20042;-69
2022/07/16 02:21:47;;;;;;;3.13;1.88;;;19.50;95.40;;;;;;4121126;28;20061;-70
2022/07/16 02:23:48;;;;;;;3.70;2.00;;;19.50;94.70;;;;;;4122591;28;20061;-70
2022/07/16 02:25:48;;;;;;;3.65;1.90;;;19.40;94.50;;;;;;4123213;28;20035;-70
2022/07/16 02:28:07;;;;;;;5.07;2.28;;;19.50;95.20;;;;;;4125068;28;20057;-70
2022/07/16 02:30:09;;;;;;;4.15;2.10;;;19.40;94.60;;;;;;4124775;28;20034;-71
2022/07/16 02:32:09;;;;;;;2.83;2.05;;;19.40;94.60;;;;;;4125520;28;20057;-70
2022/07/16 02:34:10;;;;;;;5.07;1.90;;;19.40;94.50;;;;;;4128936;28;20030;-70
2022/07/16 02:36:11;;;;;;;3.50;1.83;;;19.40;94.70;;;;;;4123843;28;20058;-70
2022/07/16 02:38:13;;;;;;;5.43;2.03;;;19.40;94.60;;;;;;4127447;28;20038;-70
2022/07/16 02:40:14;;;;;;;3.15;1.83;;;19.40;94.10;;;;;;4125535;28;20046;-71
2022/07/16 02:42:15;;;;;;;3.20;2.10;;;19.40;94.50;;;;;;4127508;28;20042;-70
2022/07/16 02:44:15;;;;;;;2.75;1.75;;;19.40;95.00;;;;;;4124844;28;20085;-71
2022/07/16 02:46:16;;;;;;;3.25;1.75;;;19.40;95.60;;;;;;4122480;28;20047;-67
2022/07/16 02:48:16;;;;;;;2.83;1.70;;;19.40;94.50;;;;;;4125915;28;20045;-70
2022/07/16 02:50:18;;;;;;;3.55;2.00;;;19.40;95.10;;;;;;4130027;28;20172;-70
2022/07/16 02:52:18;;;;;;;4.43;1.73;;;19.40;94.10;;;;;;4127553;28;20038;-70
2022/07/16 02:54:19;;;;;;;3.78;1.45;;;19.30;93.50;;;;;;4128523;28;20061;-70
2022/07/16 02:56:19;;;;;;;2.22;1.77;;;19.30;94.10;;;;;;4130526;28;20038;-70
2022/07/16 02:58:21;;;;;;;2.80;1.83;;;19.30;95.10;;;;;;4130781;28;20082;-71
2022/07/16 03:00:22;;;;;;;2.97;1.90;;;19.20;94.40;;;;;;4130604;28;20042;-70
2022/07/16 03:02:22;;;;;;;3.95;2.05;;;19.30;94.20;;;;;;4125972;28;20034;-70
2022/07/16 03:04:23;;;;;;;2.67;1.80;;;19.30;95.00;;;;;;4128741;28;20038;-70
2022/07/16 03:06:24;;;;;;;4.13;1.80;;;19.20;94.20;;;;;;4125383;28;20039;-70
2022/07/16 03:08:24;;;;;;;2.55;1.70;;;19.20;95.80;;;;;;4126599;28;20037;-70
2022/07/16 03:10:25;;;;;;;4.78;1.95;;;19.20;95.00;;;;;;4125728;28;20499;-70
2022/07/16 03:12:25;;;;;;;2.83;1.60;;;19.20;95.10;;;;;;4125290;28;20035;-70
2022/07/16 03:14:26;;;;;;;2.28;1.80;;;19.20;94.90;;;;;;4125900;28;20041;-70
2022/07/16 03:16:27;;;;;;;2.80;1.70;;;19.20;94.90;;;;;;4123850;28;20498;-70
2022/07/16 03:18:27;;;;;;;1.88;1.52;;;19.30;95.10;;;;;;4127970;28;20043;-68
2022/07/16 03:20:28;;;;;;;3.70;2.00;;;19.30;94.90;;;;;;4130657;28;20379;-70
2022/07/16 03:22:28;;;;;;;3.03;1.95;;;19.30;96.90;;;;;;4125442;28;20046;-70
2022/07/16 03:24:29;;;;;;;4.15;1.88;;;19.30;95.20;;;;;;4125813;28;20049;-70
2022/07/16 03:26:29;;;;;;;2.85;1.30;;;19.30;95.40;;;;;;4123826;28;20031;-70
2022/07/16 03:28:30;;;;;;;2.50;1.58;;;19.30;96.20;;;;;;4127898;28;20106;-70
2022/07/16 03:30:31;;;;;;;2.55;1.65;;;19.30;95.90;;;;;;4126723;28;20132;-70
2022/07/16 03:32:31;;;;;;;3.28;1.48;;;19.30;95.90;;;;;;4123995;28;20133;-70
2022/07/16 03:34:32;;;;;;;3.25;1.80;;;19.30;95.30;;;;;;4127241;28;20501;-70
2022/07/16 03:36:33;;;;;;;2.97;1.65;;;19.30;95.80;;;;;;4126199;28;20397;-71
2022/07/16 03:40:53;;;;;;;5.72;1.70;;;19.30;95.40;;;;;;4128452;28;20035;-70
2022/07/16 03:42:53;;;;;;;3.05;1.85;;;19.40;95.60;;;;;;4124712;28;20034;-70
2022/07/16 03:44:54;;;;;;;4.45;2.05;;;19.30;94.80;;;;;;4126646;28;20051;-70
2022/07/16 03:46:55;;;;;;;3.30;1.77;;;19.30;94.90;;;;;;4120502;28;20533;-70
2022/07/16 03:48:56;;;;;;;2.83;1.73;;;19.20;94.50;;;;;;4128375;28;20402;-70
2022/07/16 03:50:57;;;;;;;2.95;1.75;;;19.20;94.30;;;;;;4127742;28;20030;-70
2022/07/16 03:52:57;;;;;;;3.28;1.67;;;19.10;94.70;;;;;;4121271;28;20039;-71
2022/07/16 03:54:58;;;;;;;2.60;1.75;;;19.10;95.30;;;;;;4125770;28;20030;-69
2022/07/16 03:56:58;;;;;;;2.80;1.88;;;19.10;95.00;;;;;;4122776;28;20066;-70
2022/07/16 03:58:59;;;;;;;3.90;2.40;;;19.10;95.10;;;;;;4126232;28;20035;-70
2022/07/16 04:01:00;;;;;;;4.03;1.95;;;19.10;94.70;;;;;;4126448;28;20050;-70
2022/07/16 04:03:00;;;;;;;4.60;1.70;;;19.10;94.60;;;;;;4124391;28;20034;-70
2022/07/16 04:05:01;;;;;;;4.80;2.25;;;19.10;96.00;;;;;;4127957;28;20031;-70
2022/07/16 04:07:02;;;;;;;4.10;2.13;;;19.00;96.40;;;;;;4127558;28;20041;-70
2022/07/16 04:09:02;;;;;;;3.50;1.67;;;19.00;95.30;;;;;;4129483;28;20493;-70
2022/07/16 04:11:03;;;;;;;5.03;1.88;;;19.10;95.10;;;;;;4126807;28;20089;-70
2022/07/16 04:13:04;;;;;;;2.08;1.60;;;19.10;95.20;;;;;;4123129;28;20032;-70
2022/07/16 04:15:05;;;;;;;3.85;1.92;;;19.10;96.00;;;;;;4124456;28;20031;-71
2022/07/16 04:17:05;;;;;;;3.42;1.90;;;19.10;95.60;;;;;;4120931;28;20114;-70
2022/07/16 04:19:06;;;;;;;3.88;1.73;;;19.10;94.50;;;;;;4128269;28;20053;-70
2022/07/16 04:21:07;;;;;;;3.15;1.70;;;19.10;95.50;;;;;;4127799;28;20105;-70
2022/07/16 04:23:07;;;;;;;3.88;1.83;;;19.10;94.90;;;;;;4123176;28;20033;-70
2022/07/16 04:25:08;;;;;;;3.72;1.50;;;19.10;95.40;;;;;;4124962;28;20605;-71
2022/07/16 04:27:09;;;;;;;2.40;1.55;;;19.10;95.00;;;;;;4125481;28;20034;-70
2022/07/16 04:29:09;;;;;;;3.15;1.60;;;19.10;94.80;;;;;;4126614;28;20513;-70
2022/07/16 04:31:10;;;;;;;3.05;1.75;;;19.10;95.50;;;;;;4123434;28;20030;-70
2022/07/16 04:33:11;;;;;;;4.78;2.25;;;19.10;95.40;;;;;;4128288;28;20165;-70
2022/07/16 04:35:13;;;;;;;6.20;2.00;;;19.20;94.90;;;;;;4124324;28;20039;-71
2022/07/16 04:37:14;;;;;;;3.00;1.42;;;19.10;94.90;;;;;;4125065;28;20061;-70
2022/07/16 04:39:15;;;;;;;6.03;2.00;;;19.10;94.40;;;;;;4126469;28;20030;-70
2022/07/16 04:41:15;;;;;;;4.65;2.30;;;19.10;95.40;;;;;;4126001;28;20116;-70
2022/07/16 04:43:16;;;;;;;3.25;2.25;;;19.10;94.40;;;;;;4121706;28;20546;-70
2022/07/16 04:45:16;;;;;;;4.32;2.25;;;19.10;95.20;;;;;;4127045;28;20037;-71
2022/07/16 04:47:17;;;;;;;4.15;1.63;;;19.10;95.10;;;;;;4126375;28;20030;-70
2022/07/16 04:49:18;;;;;;;6.63;2.45;;;19.10;95.30;;;;;;4125583;28;20026;-70
2022/07/16 04:51:18;;;;;;;2.25;1.90;;;19.10;94.60;;;;;;4129058;28;20651;-70
2022/07/16 04:53:19;;;;;;;4.00;2.28;;;19.10;94.80;;;;;;4124777;28;20117;-68
2022/07/16 04:55:19;;;;;;;4.25;2.10;;;19.10;94.40;;;;;;4121402;28;20034;-69
2022/07/16 04:57:20;;;;;;;2.30;1.85;;;19.10;95.10;;;;;;4126195;28;20410;-70
2022/07/16 04:59:20;;;;;;;6.13;2.65;;;19.10;94.80;;;;;;4126183;28;20031;-70
2022/07/16 05:01:21;;;;;;;6.70;2.67;;;19.20;95.30;;;;;;4124138;28;20096;-70
2022/07/16 05:03:25;;;;;;;3.05;2.08;;;19.10;95.10;;;;;;4124373;28;20057;-71
2022/07/16 05:05:34;;;;;;;4.10;2.60;;;19.10;94.40;;;;;;4125785;28;20494;-70
2022/07/16 05:07:35;;;;;;;3.78;2.50;;;19.10;95.10;;;;;;4124558;28;20483;-70
2022/07/16 05:09:36;;;;;;;4.88;2.67;;;19.10;95.00;;;;;;4128997;28;20119;-70
2022/07/16 05:11:36;;;;;;;4.68;2.55;;;19.10;94.40;;;;;;4110351;28;20055;-70
2022/07/16 05:13:37;;;;;;;7.25;2.92;;;19.20;95.80;;;;;;4121393;28;20026;-70
2022/07/16 05:15:38;;;;;;;5.75;2.50;;;19.10;95.20;;;;;;4123221;28;20049;-70
2022/07/16 05:17:39;;;;;;;5.80;2.92;;;19.10;95.30;;;;;;4127681;28;20076;-70
2022/07/16 05:19:39;;;;;;;5.25;2.78;;;19.10;95.60;;;;;;4127857;28;20039;-70
2022/07/16 05:21:40;;;;;;;6.65;3.38;;;19.10;96.50;;;;;;4121842;28;20491;-70
2022/07/16 05:23:41;;;;;;;5.97;3.15;;;19.10;96.30;;;;;;4121534;28;20031;-70
2022/07/16 05:25:41;;;;;;;5.07;2.83;;;19.00;95.50;;;;;;4120040;28;20034;-70
2022/07/16 05:27:42;;;;;;;6.47;3.22;;;19.10;96.50;;;;;;4122395;28;20019;-70
2022/07/16 05:29:42;;;;;;;5.93;3.50;;;19.00;96.10;;;;;;4127533;28;20080;-70
2022/07/16 05:31:43;;;;;;;7.45;3.65;;;19.00;97.30;;;;;;4132776;28;20512;-70
2022/07/16 05:33:44;;;;;;;12.05;4.07;;;19.00;97.00;;;;;;4123658;28;20031;-70
2022/07/16 05:35:44;;;;;;;5.13;3.17;;;19.00;97.80;;;;;;4111948;28;20034;-70
2022/07/16 05:37:45;;;;;;;6.03;3.40;;;19.00;96.60;;;;;;4124337;28;20097;-70
2022/07/16 05:39:46;;;;;;;4.68;2.92;;;19.00;97.90;;;;;;4125972;28;20037;-70
2022/07/16 05:41:47;;;;;;;4.80;2.97;;;19.10;98.60;;;;;;4125485;28;20042;-70
2022/07/16 05:43:47;;;;;;;7.70;3.90;;;19.20;98.70;;;;;;4127769;28;20233;-70
2022/07/16 05:45:48;;;;;;;8.63;4.40;;;19.20;98.30;;;;;;4124633;28;20046;-70
2022/07/16 05:47:48;;;;;;;6.72;3.63;;;19.20;98.60;;;;;;4127071;28;20048;-70
2022/07/16 05:49:49;;;;;;;8.55;4.35;;;19.20;98.40;;;;;;4128012;28;20038;-70
2022/07/16 05:51:50;;;;;;;7.53;3.80;;;19.30;99.00;;;;;;4125662;28;20180;-69
2022/07/16 05:53:50;;;;;;;4.43;3.22;;;19.30;98.90;;;;;;4111973;28;20035;-69
2022/07/16 05:55:51;;;;;;;6.78;4.30;;;19.30;99.20;;;;;;4126124;28;20504;-70
2022/07/16 05:57:51;;;;;;;6.90;3.22;;;19.30;99.10;;;;;;4127608;28;20037;-70
2022/07/16 05:59:52;;;;;;;4.07;3.20;;;19.40;99.10;;;;;;4129731;28;20038;-70
2022/07/16 06:01:52;;;;;;;6.47;3.95;;;19.40;99.20;;;;;;4132867;28;20054;-71
2022/07/16 06:03:53;;;;;;;6.05;3.65;;;19.50;99.00;;;;;;4124908;28;20375;-71
2022/07/16 06:05:53;;;;;;;6.63;3.70;;;19.60;99.30;;;;;;4125078;28;20104;-71
2022/07/16 06:07:54;;;;;;;5.75;3.55;;;19.80;99.90;;;;;;4123397;28;20041;-71
2022/07/16 06:09:55;;;;;;;6.03;3.22;;;20.00;99.90;;;;;;4119696;28;20557;-71
2022/07/16 06:11:55;;;;;;;6.03;4.00;;;20.20;99.10;;;;;;4128555;28;20126;-71
2022/07/16 06:13:56;;;;;;;7.13;3.50;;;20.40;98.70;;;;;;4122438;28;20031;-71
2022/07/16 06:15:56;;;;;;;7.15;3.90;;;20.60;98.80;;;;;;4123557;28;20049;-71
2022/07/16 06:17:58;;;;;;;12.95;4.25;;;20.80;98.10;;;;;;4126815;28;20037;-71
2022/07/16 06:19:58;;;;;;;7.45;3.72;;;21.00;98.20;;;;;;4120817;28;20553;-71
2022/07/16 06:21:59;;;;;;;4.05;2.83;;;21.20;97.70;;;;;;4121423;28;20035;-71
2022/07/16 06:23:59;;;;;;;5.38;3.17;;;21.40;98.60;;;;;;4125465;28;20042;-71
2022/07/16 06:26:00;;;;;;;4.72;2.72;;;21.80;98.40;;;;;;4125432;28;20038;-71
2022/07/16 06:28:01;;;;;;;4.35;2.63;;;22.20;97.40;;;;;;4126196;28;20122;-71
2022/07/16 06:30:03;;;;;;;5.18;2.65;;;22.50;95.60;;;;;;4123202;28;20491;-71
2022/07/16 06:32:05;;;;;;;3.15;1.90;;;22.60;95.10;;;;;;4124945;28;20057;-72
2022/07/16 06:34:05;;;;;;;4.20;2.45;;;22.80;94.90;;;;;;4125622;28;20386;-72
2022/07/16 06:36:06;;;;;;;4.82;2.10;;;23.10;94.40;;;;;;4125481;28;20030;-71
2022/07/16 06:38:07;;;;;;;3.75;2.45;;;23.40;94.70;;;;;;4123820;28;20494;-72
2022/07/16 06:40:08;;;;;;;4.35;2.17;;;23.60;93.50;;;;;;4130344;28;20059;-73
2022/07/16 06:42:09;;;;;;;3.85;2.35;;;23.80;94.20;;;;;;4122931;28;20191;-72
2022/07/16 06:44:09;;;;;;;3.08;1.92;;;24.00;93.20;;;;;;4126583;28;20485;-72
2022/07/16 06:46:10;;;;;;;3.30;1.85;;;24.20;93.20;;;;;;4122339;28;20086;-72
2022/07/16 06:48:11;;;;;;;6.93;1.80;;;24.40;93.00;;;;;;4125616;28;20042;-72
2022/07/16 06:50:12;;;;;;;1.33;1.00;;;24.30;91.20;;;;;;4126653;28;20057;-73
2022/07/16 06:52:12;;;;;;;4.07;1.60;;;24.20;92.30;;;;;;4127663;28;20050;-72
2022/07/16 06:54:13;;;;;;;2.13;1.10;;;24.10;91.30;;;;;;4126005;28;20046;-72
2022/07/16 06:56:14;;;;;;;2.15;1.02;;;24.00;91.40;;;;;;4122030;28;20047;-72
2022/07/16 06:58:14;;;;;;;1.50;1.10;;;24.10;91.30;;;;;;4123440;28;20031;-72
2022/07/16 07:00:15;;;;;;;1.40;0.85;;;24.00;90.90;;;;;;4123979;28;20038;-73
2022/07/16 07:02:16;;;;;;;2.10;0.98;;;24.00;90.20;;;;;;4126142;28;20034;-72
2022/07/16 07:04:17;;;;;;;2.75;1.00;;;23.90;90.50;;;;;;4127944;28;20487;-73
2022/07/16 07:06:17;;;;;;;1.73;0.90;;;23.90;90.30;;;;;;4125539;28;20081;-72
2022/07/16 07:08:18;;;;;;;2.67;0.95;;;23.80;90.30;;;;;;4127541;28;20049;-73
2022/07/16 07:10:19;;;;;;;1.40;0.90;;;23.90;89.00;;;;;;4126661;28;20572;-73
2022/07/16 07:12:19;;;;;;;1.63;0.65;;;23.90;90.00;;;;;;4126449;28;20042;-72
2022/07/16 07:14:20;;;;;;;1.42;0.70;;;24.00;89.50;;;;;;4126606;28;20065;-72
2022/07/16 07:16:21;;;;;;;3.10;0.60;;;24.10;89.40;;;;;;4125264;28;20042;-72
2022/07/16 07:18:22;;;;;;;1.30;0.52;;;24.10;82.70;;;;;;4123869;28;20062;-72
2022/07/16 07:20:23;;;;;;;0.80;0.55;;;24.00;84.60;;;;;;4127974;28;20035;-71
2022/07/16 07:22:23;;;;;;;0.90;0.60;;;24.10;87.00;;;;;;4133940;28;20376;-72
2022/07/16 07:24:24;;;;;;;1.00;0.52;;;24.20;87.60;;;;;;4124161;28;20026;-72
2022/07/16 07:26:24;;;;;;;1.20;0.60;;;24.20;87.60;;;;;;4124744;28;20026;-71
2022/07/16 07:28:25;;;;;;;0.95;0.50;;;24.10;85.00;;;;;;4127880;28;20523;-72
2022/07/16 07:30:26;;;;;;;1.02;0.50;;;24.10;86.70;;;;;;4126429;28;20030;-72
2022/07/16 07:32:26;;;;;;;1.63;0.68;;;23.90;83.80;;;;;;4126219;28;20422;-72
2022/07/16 07:34:27;;;;;;;1.90;0.80;;;24.00;87.10;;;;;;4124528;28;20035;-72
2022/07/16 07:36:28;;;;;;;2.05;0.60;;;23.90;88.20;;;;;;4125181;28;20046;-72
2022/07/16 07:38:28;;;;;;;1.58;0.70;;;23.90;88.30;;;;;;4123615;28;20042;-72
2022/07/16 07:40:29;;;;;;;2.20;0.90;;;23.80;86.80;;;;;;4124312;28;20042;-72
2022/07/16 07:42:31;;;;;;;0.82;0.60;;;23.60;85.10;;;;;;4124573;28;20038;-72
2022/07/16 07:44:31;;;;;;;1.20;0.55;;;23.60;86.20;;;;;;4135534;28;20137;-72
2022/07/16 07:46:32;;;;;;;1.33;0.65;;;23.60;87.80;;;;;;4129632;28;20038;-71
2022/07/16 07:48:33;;;;;;;1.50;0.77;;;23.60;86.40;;;;;;4138539;28;20030;-72
2022/07/16 07:50:34;;;;;;;1.35;0.80;;;23.60;86.80;;;;;;4134834;28;20386;-72
2022/07/16 07:52:34;;;;;;;1.48;1.00;;;23.40;88.30;;;;;;4130264;28;20042;-72
2022/07/16 07:54:36;;;;;;;1.35;0.57;;;23.40;88.20;;;;;;4132987;28;20038;-71
2022/07/16 07:56:36;;;;;;;1.25;0.63;;;23.40;88.50;;;;;;4135265;28;20093;-72
2022/07/16 07:58:38;;;;;;;1.35;0.77;;;23.50;88.30;;;;;;4136235;28;20034;-71
2022/07/16 08:00:39;;;;;;;1.55;0.60;;;23.60;88.60;;;;;;4129683;28;20105;-72
2022/07/16 08:02:46;;;;;;;1.42;0.70;;;23.60;86.00;;;;;;4130899;28;20045;-73
2022/07/16 08:04:46;;;;;;;1.95;0.85;;;23.80;88.30;;;;;;4131321;28;20027;-72
2022/07/16 08:06:47;;;;;;;0.68;0.60;;;23.80;87.80;;;;;;4128817;28;20026;-72
2022/07/16 08:08:48;;;;;;;1.58;0.98;;;23.80;83.40;;;;;;4130922;28;20023;-72
2022/07/16 08:10:48;;;;;;;2.92;1.05;;;23.80;86.50;;;;;;4131613;28;20053;-72
2022/07/16 08:12:49;;;;;;;1.85;0.80;;;23.90;86.10;;;;;;4132894;28;20125;-72
2022/07/16 08:14:50;;;;;;;1.95;0.95;;;23.80;87.50;;;;;;4130574;28;20090;-72
2022/07/16 08:16:51;;;;;;;1.90;1.02;;;23.80;86.40;;;;;;4132570;28;20029;-72
2022/07/16 08:18:52;;;;;;;1.58;0.80;;;23.80;86.50;;;;;;4146643;28;20034;-71
2022/07/16 08:20:52;;;;;;;1.75;0.60;;;23.80;86.10;;;;;;4146374;28;20099;-71
2022/07/16 08:22:53;;;;;;;1.42;1.00;;;23.80;85.80;;;;;;4135515;28;20034;-71
2022/07/16 08:27:13;;;;;;;2.55;1.33;;;23.80;88.10;;;;;;4131909;28;20058;-72
2022/07/16 08:29:14;;;;;;;1.40;0.80;;;23.90;86.70;;;;;;4128220;28;20146;-72
2022/07/16 08:31:14;;;;;;;0.88;0.60;;;23.90;85.20;;;;;;4129049;28;20030;-72
2022/07/16 08:33:15;;;;;;;1.92;0.90;;;23.80;88.20;;;;;;4130630;28;20153;-72
2022/07/16 08:35:16;;;;;;;1.38;0.82;;;23.80;87.30;;;;;;4129738;28;20030;-73
2022/07/16 08:37:33;;;;;;;1.20;0.80;;;23.80;82.90;;;;;;4132849;28;20026;-71
2022/07/16 08:39:37;;;;;;;1.83;0.85;;;23.70;85.30;;;;;;4146357;28;20049;-71
2022/07/16 08:41:38;;;;;;;1.75;0.90;;;23.60;83.40;;;;;;4131962;28;20442;-72
2022/07/16 08:43:39;;;;;;;0.55;0.55;;;23.50;86.20;;;;;;4130217;28;20022;-72
2022/07/16 08:45:40;;;;;;;2.20;0.70;;;23.50;87.60;;;;;;4129836;28;20120;-71
2022/07/16 08:47:41;;;;;;;2.67;0.80;;;23.60;86.20;;;;;;4136152;28;20065;-71
2022/07/16 08:49:45;;;;;;;3.92;1.30;;;23.60;85.10;;;;;;4146767;28;20038;-72
2022/07/16 08:51:46;;;;;;;1.65;0.80;;;23.60;85.40;;;;;;4134145;28;20050;-72
2022/07/16 08:53:50;;;;;;;0.63;0.63;;;23.70;84.50;;;;;;4143288;28;20440;-72
2022/07/16 08:55:54;;;;;;;1.40;1.08;;;23.70;84.20;;;;;;4141988;28;20038;-72
2022/07/16 08:57:57;;;;;;;1.63;0.60;;;23.70;82.30;;;;;;4138048;28;20105;-72
2022/07/16 08:59:58;;;;;;;1.73;0.70;;;23.80;83.40;;;;;;4130209;28;20029;-72
2022/07/16 09:01:58;;;;;;;4.38;0.95;;;23.90;83.30;;;;;;4129388;28;20034;-72
2022/07/16 09:03:59;;;;;;;0.90;0.63;;;23.90;83.00;;;;;;4143924;28;20057;-71
2022/07/16 09:06:01;;;;;;;3.75;0.88;;;23.90;85.10;;;;;;4137556;28;20577;-71
2022/07/16 09:08:04;;;;;;;1.25;0.60;;;23.80;86.00;;;;;;4140609;28;20027;-71
2022/07/16 09:10:06;;;;;;;1.48;0.98;;;23.80;85.90;;;;;;4129498;28;20030;-71
2022/07/16 09:12:07;;;;;;;2.80;0.93;;;23.80;85.50;;;;;;4129409;28;20057;-72
2022/07/16 09:14:16;;;;;;;1.75;1.17;;;23.80;86.10;;;;;;4122676;28;20038;-71
2022/07/16 09:16:28;;;;;;;2.25;1.10;;;23.80;85.20;;;;;;4112130;28;20063;-72
2022/07/16 09:18:28;;;;;;;0.95;0.88;;;23.60;85.00;;;;;;4132460;28;20092;-71
2022/07/16 09:20:30;;;;;;;2.33;1.15;;;23.50;85.00;;;;;;4145530;28;20037;-71
2022/07/16 09:22:31;;;;;;;0.95;0.70;;;23.40;86.30;;;;;;4129351;28;20027;-72
2022/07/16 09:24:52;;;;;;;3.45;1.00;;;23.20;85.20;;;;;;4143584;28;20508;-72
2022/07/16 09:27:08;;;;;;;1.58;0.90;;;23.20;87.10;;;;;;4138595;28;20029;-72
2022/07/16 09:29:13;;;;;;;1.48;1.05;;;23.10;84.70;;;;;;4143219;28;20034;-71
2022/07/16 09:31:32;;;;;;;1.77;0.95;;;23.20;88.70;;;;;;4128047;28;20117;-72
2022/07/16 09:33:33;;;;;;;1.35;0.80;;;23.20;87.50;;;;;;4129035;28;20034;-71
2022/07/16 09:35:33;;;;;;;1.98;0.88;;;23.30;85.80;;;;;;4113083;28;20034;-71
2022/07/16 09:37:59;;;;;;;3.28;1.20;;;23.40;87.00;;;;;;4132154;28;20033;-71
2022/07/16 09:39:59;;;;;;;0.98;0.60;;;23.40;90.30;;;;;;4104048;28;20046;-71
2022/07/16 09:42:00;;;;;;;1.80;0.65;;;23.60;86.80;;;;;;4112771;28;20039;-72
2022/07/16 09:44:02;;;;;;;1.52;0.70;;;23.70;85.20;;;;;;4120830;28;20042;-72
2022/07/16 09:46:03;;;;;;;0.98;0.70;;;23.80;85.80;;;;;;4128051;28;20030;-72
2022/07/16 09:48:18;;;;;;;2.53;1.00;;;23.90;87.40;;;;;;4124127;28;20031;-72
2022/07/16 09:50:19;;;;;;;1.52;0.80;;;24.00;87.60;;;;;;4112668;28;20027;-73
2022/07/16 09:52:31;;;;;;;2.28;0.70;;;23.90;85.60;;;;;;4134651;28;20050;-72
2022/07/16 09:54:34;;;;;;;1.50;0.77;;;23.90;83.00;;;;;;4131862;28;20069;-71
2022/07/16 09:56:35;;;;;;;1.13;0.70;;;23.90;85.60;;;;;;4133675;28;20261;-72
2022/07/16 09:58:36;;;;;;;1.17;0.73;;;23.90;83.70;;;;;;4145447;28;20036;-71
2022/07/16 10:00:36;;;;;;;1.48;0.85;;;23.90;82.20;;;;;;4137265;28;20085;-72
2022/07/16 10:02:37;;;;;;;2.83;0.95;;;24.00;80.80;;;;;;4129450;28;20437;-72
2022/07/16 10:04:39;;;;;;;1.13;0.68;;;24.10;80.10;;;;;;4129001;28;20061;-71
2022/07/16 10:06:40;;;;;;;4.85;1.48;;;24.20;83.70;;;;;;4128703;28;20440;-72
2022/07/16 10:08:43;;;;;;;3.95;1.48;;;24.20;81.30;;;;;;4110899;28;20454;-71
2022/07/16 10:10:47;;;;;;;3.22;0.90;;;24.20;82.90;;;;;;4133279;28;20078;-71
2022/07/16 10:12:49;;;;;;;2.80;1.02;;;24.20;84.10;;;;;;4129489;28;20505;-72
2022/07/16 10:14:52;;;;;;;4.10;1.10;;;24.30;84.00;;;;;;4134917;28;20038;-72
2022/07/16 10:16:59;;;;;;;3.60;0.80;;;24.30;80.50;;;;;;4128102;28;20142;-72
2022/07/16 10:19:00;;;;;;;2.50;1.05;;;24.30;81.80;;;;;;4130863;28;20039;-72
2022/07/16 10:21:08;;;;;;;2.60;0.73;;;24.20;80.10;;;;;;4128569;28;20041;-71
2022/07/16 10:23:08;;;;;;;0.98;0.70;;;24.20;81.60;;;;;;4128379;28;20035;-72
2022/07/16 10:25:24;;;;;;;2.67;0.80;;;24.30;83.40;;;;;;4136143;28;20068;-73
2022/07/16 10:27:30;;;;;;;3.83;1.45;;;24.40;84.00;;;;;;4118255;28;20363;-72
2022/07/16 10:29:42;;;;;;;1.95;0.70;;;24.50;82.60;;;;;;4132303;28;20048;-72
2022/07/16 10:34:40;;;;;;;2.80;0.98;;;24.60;78.40;;;;;;4128546;28;20440;-72
2022/07/16 10:36:48;;;;;;;1.98;0.80;;;24.30;78.90;;;;;;4127994;28;20031;-71
2022/07/16 10:39:12;;;;;;;1.73;0.60;;;24.20;80.10;;;;;;4126049;28;20027;-72
2022/07/16 10:41:15;;;;;;;3.08;1.00;;;24.20;78.80;;;;;;4121886;28;20067;-71
2022/07/16 10:43:18;;;;;;;1.27;0.60;;;24.20;78.50;;;;;;4120740;28;20461;-72
2022/07/16 10:45:19;;;;;;;0.82;0.68;;;24.10;78.40;;;;;;4119643;28;20031;-72